Airfield :
LOGIN :

Register | Disclaimer

   EN    FR    IT 

 










Legend :    VFR   Marginal VFR   IFR   Intensive IFR   Very Intensive IFR
Visi :
Ceiling :
>= 8 km
>= 3000ft
5 to 8 km
1000 to 3000 ft
1500m to 5 km
500 to 1000 ft
800 to 1500m
200 to 500 ft
< 800m
< 200 ft
Symbols :   Thunderstorms  Fog  Heavy snow  Heavy precipitations  Wind > 20 kt
SIGMETs :     Misc.  Thunderstorms  Icing  Turbulence  Mountain Waves  Volcanic Ashes






- Airport Elevation : 436 ft
- IATA code : ANG


LFBU - Angoulême Brie Champniers

CURRENT METAR :
  • 150530Z AUTO 23007KT 190V260 8000 RA BKN005/// OVC033/// ///CB 11/11 Q1010 TEMPO 24015G25KT 4000 SHRA SCT010 BKN020TCU

EXPIRED METARs :
  • 150500Z AUTO 22006KT 9999 -RA FEW004/// BKN008/// BKN015/// ///TCU 12/11 Q1010
  • 150430Z AUTO 23007KT 200V270 9000 RA SCT006/// SCT013/// BKN032/// ///TCU 12/11 Q1010
  • 150400Z AUTO 27004KT 9999 -RA SCT008/// SCT023/// BKN074/// ///TCU 12/11 Q1009
  • 150330Z AUTO 30007KT 260V330 9999 -RA SCT006/// BKN013/// BKN025/// ///TCU 12/11 Q1009
  • 150300Z AUTO 23009KT 200V270 6000 RA BKN006/// BKN010/// BKN015/// ///TCU 13/12 Q1009

TAF TAF LFBU
Valid from the 15 at 06:00 until the 16 at 06:00 UTC


150500Z 1506/1606 24010KT CAVOK
TEMPO 1506/1517 24015G25KT 4000 SHRA SCT010 BKN020TCU
BECMG 1602/1604 15010KT



MET'MAP, your aeronautical weather chart ! - Copyright ORBIFLY December 2007 - Disclaimer

ORBIFLY MET'MAP TEAM :

Programming & Development : Alexandra Zaïnal
Concept & Development : Baudouin d'Aumeries
Co-Development & Prog : Marc-Olivier Méhu
Technical & hardware support : Manuel Goepfert

Contact : metmap@orbifly.com




SOURCES & CREDITS :

   NOAA